sim
Sign-in with your pilot id or email,
or register
Callsign
Passwort

Schedule Details

Flight Number: OEO1577
Departure: East Midlands Airport (EGNX) at 06:50
Arrival: Munich Airport (EDDM) at 08:45

Weather Information
Getting current METAR information for EGNX 190920Z 02014KT 9999 SCT013 SCT015 15/12 Q1021
Getting current METAR information for EDDM 190920Z 08007KT 040V110 CAVOK 16/09 Q1020 NOSIG

Schedule Frequency

Route Map